createdAt,value
2018-12-05T00:01:41.932Z,96295.00
2018-12-05T00:04:11.162Z,96301.00
2018-12-05T00:06:40.360Z,96290.00
2018-12-05T00:11:49.088Z,96295.00
2018-12-05T00:14:18.204Z,96293.00
2018-12-05T00:16:47.350Z,96288.00
2018-12-05T00:19:16.592Z,96280.00
2018-12-05T00:21:45.805Z,96274.00
2018-12-05T00:24:16.365Z,96272.00
2018-12-05T00:26:45.560Z,96270.00
2018-12-05T00:29:14.797Z,96254.00
2018-12-05T00:34:23.036Z,96253.00
2018-12-05T00:36:52.156Z,96248.00
2018-12-05T00:39:22.032Z,96250.00
2018-12-05T00:44:31.192Z,96258.00
2018-12-05T00:47:00.413Z,96277.00
2018-12-05T00:52:08.824Z,96276.00
2018-12-05T00:54:37.943Z,96273.00
2018-12-05T00:57:07.080Z,96278.00
2018-12-05T00:59:36.262Z,96279.00
2018-12-05T01:02:05.843Z,96262.00
2018-12-05T01:04:34.980Z,96266.00
2018-12-05T01:09:43.040Z,96259.00
2018-12-05T01:14:59.173Z,96262.00
2018-12-05T01:17:28.496Z,96257.00
2018-12-05T01:19:57.598Z,96256.00
2018-12-05T01:22:26.980Z,96259.00
2018-12-05T01:24:56.175Z,96279.00
2018-12-05T01:27:25.565Z,96275.00
2018-12-05T01:29:54.669Z,96282.00
2018-12-05T01:32:23.780Z,96264.00
2018-12-05T01:34:52.968Z,96260.00
2018-12-05T01:37:22.688Z,96266.00
2018-12-05T01:39:52.777Z,96254.00
2018-12-05T01:42:22.929Z,96260.00
2018-12-05T01:44:57.768Z,96252.00
2018-12-05T01:47:26.909Z,96257.00
2018-12-05T01:49:56.105Z,96267.00
2018-12-05T01:55:03.526Z,96271.00
2018-12-05T01:57:32.661Z,96269.00
2018-12-05T02:00:01.777Z,96269.00
2018-12-05T02:02:30.865Z,96270.00
2018-12-05T02:05:00.125Z,96268.00
2018-12-05T02:07:29.308Z,96264.00
2018-12-05T02:09:58.665Z,96254.00
2018-12-05T02:12:27.829Z,96265.00
2018-12-05T02:14:56.930Z,96253.00
2018-12-05T02:17:27.125Z,96258.00
2018-12-05T02:19:56.257Z,96266.00
2018-12-05T02:22:25.423Z,96270.00
2018-12-05T02:24:55.094Z,96279.00
2018-12-05T02:27:24.267Z,96271.00
2018-12-05T02:32:37.014Z,96276.00
2018-12-05T02:35:06.454Z,96258.00
2018-12-05T02:37:35.648Z,96248.00
2018-12-05T02:40:05.680Z,96248.00
2018-12-05T02:42:34.758Z,96246.00
2018-12-05T02:45:03.977Z,96248.00
2018-12-05T02:47:33.196Z,96236.00
2018-12-05T02:52:40.978Z,96232.00
2018-12-05T02:57:49.362Z,96236.00
2018-12-05T03:00:20.688Z,96245.00
2018-12-05T03:05:28.996Z,96251.00
2018-12-05T03:10:37.341Z,96261.00
2018-12-05T03:15:45.573Z,96261.00
2018-12-05T03:18:14.809Z,96264.00
2018-12-05T03:20:44.059Z,96263.00
2018-12-05T03:23:13.315Z,96265.00
2018-12-05T03:25:43.680Z,96261.00
2018-12-05T03:28:12.846Z,96267.00
2018-12-05T03:33:21.216Z,96268.00
2018-12-05T03:35:50.352Z,96265.00
2018-12-05T03:38:19.518Z,96266.00
2018-12-05T03:40:48.746Z,96272.00
2018-12-05T03:43:19.156Z,96258.00
2018-12-05T03:48:27.366Z,96253.00
2018-12-05T03:53:34.773Z,96255.00
2018-12-05T03:56:04.106Z,96254.00
2018-12-05T03:58:33.252Z,96248.00
2018-12-05T04:01:02.437Z,96251.00
2018-12-05T04:03:31.597Z,96253.00
2018-12-05T04:06:00.634Z,96265.00
2018-12-05T04:08:29.720Z,96256.00
2018-12-05T04:10:58.968Z,96260.00
2018-12-05T04:13:28.120Z,96261.00
2018-12-05T04:15:58.674Z,96264.00
2018-12-05T04:18:27.910Z,96252.00
2018-12-05T04:23:36.216Z,96259.00
2018-12-05T04:26:05.615Z,96258.00
2018-12-05T04:28:34.773Z,96259.00
2018-12-05T04:31:03.860Z,96258.00
2018-12-05T04:33:33.079Z,96257.00
2018-12-05T04:36:02.290Z,96254.00
2018-12-05T04:38:31.624Z,96259.00
2018-12-05T04:43:39.937Z,96256.00
2018-12-05T04:46:09.144Z,96251.00
2018-12-05T04:48:38.304Z,96261.00
2018-12-05T04:51:07.444Z,96264.00
2018-12-05T04:53:36.537Z,96268.00
2018-12-05T04:56:05.730Z,96268.00
2018-12-05T04:58:36.230Z,96271.00
2018-12-05T05:01:05.476Z,96265.00
2018-12-05T05:06:13.780Z,96267.00
2018-12-05T05:08:42.954Z,96257.00
2018-12-05T05:11:12.350Z,96261.00
2018-12-05T05:13:41.651Z,96276.00
2018-12-05T05:16:10.807Z,96268.00
2018-12-05T05:18:40.011Z,96285.00
2018-12-05T05:21:09.209Z,96266.00
2018-12-05T05:23:39.897Z,96272.00
2018-12-05T05:26:09.053Z,96276.00
2018-12-05T05:28:38.223Z,96273.00
2018-12-05T05:31:07.395Z,96277.00
2018-12-05T05:33:36.600Z,96265.00
2018-12-05T05:36:05.781Z,96266.00
2018-12-05T05:38:34.939Z,96262.00
2018-12-05T05:41:04.079Z,96262.00
2018-12-05T05:43:33.224Z,96259.00
2018-12-05T05:48:41.565Z,96257.00
2018-12-05T05:51:10.784Z,96259.00
2018-12-05T05:53:39.991Z,96255.00
2018-12-05T05:56:10.266Z,96257.00
2018-12-05T05:58:39.372Z,96268.00
2018-12-05T06:01:08.561Z,96273.00
2018-12-05T06:03:37.741Z,96272.00
2018-12-05T06:06:06.931Z,96260.00
2018-12-05T06:08:36.061Z,96275.00
2018-12-05T06:11:05.382Z,96284.00
2018-12-05T06:16:13.629Z,96273.00
2018-12-05T06:21:23.330Z,96268.00
2018-12-05T06:23:52.563Z,96283.00
2018-12-05T06:26:21.729Z,96286.00
2018-12-05T06:28:50.852Z,96281.00
2018-12-05T06:31:19.976Z,96287.00
2018-12-05T06:36:28.345Z,96290.00
2018-12-05T06:38:58.720Z,96298.00
2018-12-05T06:41:28.775Z,96295.00
2018-12-05T06:43:57.920Z,96297.00
2018-12-05T06:46:27.102Z,96315.00
2018-12-05T06:48:56.740Z,96303.00
2018-12-05T06:51:28.010Z,96309.00
2018-12-05T06:53:57.136Z,96309.00
2018-12-05T06:56:27.261Z,96313.00
2018-12-05T06:58:57.000Z,96312.00
2018-12-05T07:01:27.088Z,96313.00
2018-12-05T07:06:35.351Z,96316.00
2018-12-05T07:11:48.032Z,96314.00
2018-12-05T07:16:56.885Z,96324.00
2018-12-05T07:19:27.173Z,96337.00
2018-12-05T07:21:57.329Z,96339.00
2018-12-05T07:24:27.746Z,96334.00
2018-12-05T07:29:36.049Z,96343.00
2018-12-05T07:32:05.232Z,96346.00
2018-12-05T07:37:13.846Z,96345.00
2018-12-05T07:39:42.988Z,96345.00
2018-12-05T07:42:12.165Z,96352.00
2018-12-05T07:44:41.312Z,96353.00
2018-12-05T07:47:10.672Z,96349.00
2018-12-05T07:52:18.192Z,96364.00
2018-12-05T07:54:47.370Z,96365.00
2018-12-05T07:59:55.240Z,96349.00
2018-12-05T08:02:24.340Z,96343.00
2018-12-05T08:04:53.540Z,96348.00
2018-12-05T08:07:22.748Z,96351.00
2018-12-05T08:09:52.117Z,96342.00
2018-12-05T08:12:22.436Z,96351.00
2018-12-05T08:14:51.776Z,96337.00
2018-12-05T08:17:20.961Z,96334.00
2018-12-05T08:19:50.040Z,96335.00
2018-12-05T08:22:19.232Z,96338.00
2018-12-05T08:24:48.428Z,96341.00
2018-12-05T08:27:18.959Z,96333.00
2018-12-05T08:29:48.221Z,96326.00
2018-12-05T08:32:17.945Z,96328.00
2018-12-05T08:34:47.197Z,96327.00
2018-12-05T08:37:16.341Z,96333.00
2018-12-05T08:39:45.502Z,96332.00
2018-12-05T08:42:14.686Z,96336.00
2018-12-05T08:44:43.929Z,96324.00
2018-12-05T08:49:50.894Z,96324.00
2018-12-05T08:52:20.047Z,96314.00
2018-12-05T08:57:28.426Z,96322.00
2018-12-05T08:59:58.572Z,96323.00
2018-12-05T09:02:28.629Z,96313.00
2018-12-05T09:05:00.218Z,96322.00
2018-12-05T09:07:29.394Z,96325.00
2018-12-05T09:12:44.552Z,96323.00
2018-12-05T09:15:13.952Z,96337.00
2018-12-05T09:17:43.097Z,96321.00
2018-12-05T09:20:12.312Z,96326.00
2018-12-05T09:22:41.804Z,96331.00
2018-12-05T09:25:11.072Z,96320.00
2018-12-05T09:27:40.293Z,96311.00
2018-12-05T09:30:09.750Z,96318.00
2018-12-05T09:32:38.923Z,96318.00
2018-12-05T09:35:08.362Z,96321.00
2018-12-05T09:37:37.715Z,96336.00
2018-12-05T09:40:07.712Z,96312.00
2018-12-05T09:42:36.900Z,96306.00
2018-12-05T09:45:10.416Z,96316.00
2018-12-05T09:50:18.826Z,96316.00
2018-12-05T09:55:27.150Z,96310.00
2018-12-05T09:57:56.370Z,96313.00
2018-12-05T10:03:04.622Z,96304.00
2018-12-05T10:05:33.733Z,96305.00
2018-12-05T10:08:03.104Z,96297.00
2018-12-05T10:10:32.475Z,96301.00
2018-12-05T10:13:01.666Z,96288.00
2018-12-05T10:15:31.581Z,96300.00
2018-12-05T10:18:00.724Z,96291.00
2018-12-05T10:20:29.876Z,96292.00
2018-12-05T10:25:42.197Z,96285.00
2018-12-05T10:30:50.524Z,96288.00
2018-12-05T10:33:21.033Z,96287.00
2018-12-05T10:35:50.204Z,96272.00
2018-12-05T10:40:58.579Z,96275.00
2018-12-05T10:43:27.714Z,96274.00
2018-12-05T10:45:56.925Z,96275.00
2018-12-05T10:48:26.168Z,96259.00
2018-12-05T10:50:55.312Z,96264.00
2018-12-05T10:56:02.592Z,96257.00
2018-12-05T10:58:31.734Z,96248.00
2018-12-05T11:01:06.229Z,96248.00
2018-12-05T11:03:36.173Z,96248.00
2018-12-05T11:06:11.646Z,96257.00
2018-12-05T11:08:46.093Z,96245.00
2018-12-05T11:11:21.122Z,96237.00
2018-12-05T11:13:55.470Z,96223.00
2018-12-05T11:16:29.893Z,96223.00
2018-12-05T11:19:04.404Z,96237.00
2018-12-05T11:21:38.907Z,96223.00
2018-12-05T11:24:13.580Z,96245.00
2018-12-05T11:26:42.863Z,96235.00
2018-12-05T11:29:11.922Z,96223.00
2018-12-05T11:31:41.117Z,96221.00
2018-12-05T11:34:10.236Z,96210.00
2018-12-05T11:36:39.415Z,96211.00
2018-12-05T11:39:09.235Z,96198.00
2018-12-05T11:41:39.628Z,96210.00
2018-12-05T11:46:48.634Z,96213.00
2018-12-05T11:51:56.089Z,96205.00
2018-12-05T11:54:25.404Z,96197.00
2018-12-05T11:56:54.697Z,96189.00
2018-12-05T11:59:23.857Z,96190.00
2018-12-05T12:01:53.069Z,96188.00
2018-12-05T12:07:01.413Z,96188.00
2018-12-05T12:12:17.053Z,96181.00
2018-12-05T12:14:46.392Z,96179.00
2018-12-05T12:17:16.941Z,96173.00
2018-12-05T12:19:46.220Z,96168.00
2018-12-05T12:22:15.348Z,96162.00
2018-12-05T12:24:44.996Z,96166.00
2018-12-05T12:27:14.264Z,96163.00
2018-12-05T12:29:43.365Z,96160.00
2018-12-05T12:32:12.537Z,96161.00
2018-12-05T12:37:25.612Z,96145.00
2018-12-05T12:42:33.867Z,96139.00
2018-12-05T12:45:04.594Z,96137.00
2018-12-05T12:47:33.821Z,96144.00
2018-12-05T12:50:03.055Z,96136.00
2018-12-05T12:52:32.345Z,96138.00
2018-12-05T12:57:40.189Z,96125.00
2018-12-05T13:00:10.862Z,96131.00
2018-12-05T13:02:40.009Z,96117.00
2018-12-05T13:05:09.221Z,96122.00
2018-12-05T13:07:38.409Z,96127.00
2018-12-05T13:10:07.997Z,96110.00
2018-12-05T13:12:37.247Z,96116.00
2018-12-05T13:15:06.716Z,96104.00
2018-12-05T13:17:35.949Z,96114.00
2018-12-05T13:20:06.196Z,96116.00
2018-12-05T13:22:37.324Z,96107.00
2018-12-05T13:25:06.978Z,96109.00
2018-12-05T13:27:36.192Z,96102.00
2018-12-05T13:32:45.055Z,96103.00
2018-12-05T13:35:14.385Z,96102.00
2018-12-05T13:37:43.625Z,96100.00
2018-12-05T13:40:12.892Z,96104.00
2018-12-05T13:42:42.040Z,96096.00
2018-12-05T13:45:11.349Z,96094.00
2018-12-05T13:47:40.467Z,96095.00
2018-12-05T13:52:48.969Z,96085.00
2018-12-05T13:55:18.064Z,96088.00
2018-12-05T13:57:47.220Z,96097.00
2018-12-05T14:00:16.404Z,96087.00
2018-12-05T14:02:45.548Z,96088.00
2018-12-05T14:05:14.746Z,96078.00
2018-12-05T14:07:44.080Z,96087.00
2018-12-05T14:10:13.284Z,96078.00
2018-12-05T14:12:42.405Z,96079.00
2018-12-05T14:15:11.830Z,96077.00
2018-12-05T14:17:40.900Z,96054.00
2018-12-05T14:20:10.304Z,96067.00
2018-12-05T14:22:39.465Z,96049.00
2018-12-05T14:25:10.191Z,96052.00
2018-12-05T14:27:39.237Z,96054.00
2018-12-05T14:30:09.269Z,96058.00
2018-12-05T14:32:38.464Z,96059.00
2018-12-05T14:35:07.864Z,96052.00
2018-12-05T14:37:37.069Z,96055.00
2018-12-05T14:40:07.377Z,96050.00
2018-12-05T14:42:36.712Z,96041.00
2018-12-05T14:45:06.424Z,96053.00
2018-12-05T14:50:13.894Z,96051.00
2018-12-05T14:52:43.036Z,96056.00
2018-12-05T14:55:12.237Z,96048.00
2018-12-05T14:57:41.364Z,96053.00
2018-12-05T15:02:49.862Z,96038.00
2018-12-05T15:05:19.155Z,96048.00
2018-12-05T15:07:48.459Z,96045.00
2018-12-05T15:10:17.993Z,96044.00
2018-12-05T15:12:50.576Z,96041.00
2018-12-05T15:15:19.713Z,96043.00
2018-12-05T15:17:48.861Z,96041.00
2018-12-05T15:20:18.188Z,96036.00
2018-12-05T15:22:47.297Z,96031.00
2018-12-05T15:27:56.052Z,96029.00
2018-12-05T15:30:25.116Z,96023.00
2018-12-05T15:32:54.443Z,96035.00
2018-12-05T15:35:23.592Z,96022.00
2018-12-05T15:37:52.816Z,96021.00
2018-12-05T15:40:23.096Z,96016.00
2018-12-05T15:42:52.433Z,96026.00
2018-12-05T15:45:21.772Z,96018.00
2018-12-05T15:50:29.761Z,96011.00
2018-12-05T15:52:58.825Z,96014.00
2018-12-05T15:55:27.873Z,96013.00
2018-12-05T15:57:57.009Z,96009.00
2018-12-05T16:00:28.114Z,96001.00
2018-12-05T16:02:57.856Z,95997.00
2018-12-05T16:05:27.619Z,95994.00
2018-12-05T16:07:56.785Z,95990.00
2018-12-05T16:13:05.315Z,95983.00
2018-12-05T16:18:14.437Z,95990.00
2018-12-05T16:20:43.717Z,95994.00
2018-12-05T16:25:52.025Z,95991.00
2018-12-05T16:28:21.232Z,95992.00
2018-12-05T16:33:29.834Z,95994.00
2018-12-05T16:35:58.983Z,95979.00
2018-12-05T16:41:07.332Z,95974.00
2018-12-05T16:43:36.612Z,95975.00
2018-12-05T16:46:06.132Z,95978.00
2018-12-05T16:48:36.228Z,95977.00
2018-12-05T16:51:06.246Z,95981.00
2018-12-05T16:56:15.344Z,95955.00
2018-12-05T16:58:44.377Z,95962.00
2018-12-05T17:01:13.644Z,95965.00
2018-12-05T17:03:42.837Z,95967.00
2018-12-05T17:06:12.144Z,95954.00
2018-12-05T17:08:43.197Z,95950.00
2018-12-05T17:11:12.395Z,95958.00
2018-12-05T17:13:42.598Z,95956.00
2018-12-05T17:16:18.016Z,95946.00
2018-12-05T17:18:43.317Z,95960.00
2018-12-05T17:23:51.205Z,95949.00
2018-12-05T17:26:21.570Z,95948.00
2018-12-05T17:28:51.036Z,95945.00
2018-12-05T17:33:59.349Z,95939.00
2018-12-05T17:36:28.657Z,95928.00
2018-12-05T17:38:59.088Z,95931.00
2018-12-05T17:41:28.233Z,95942.00
2018-12-05T17:43:57.327Z,95931.00
2018-12-05T17:46:26.632Z,95951.00
2018-12-05T17:51:34.009Z,95934.00
2018-12-05T17:56:43.526Z,95929.00
2018-12-05T17:59:12.611Z,95924.00
2018-12-05T18:01:41.790Z,95914.00
2018-12-05T18:06:50.074Z,95906.00
2018-12-05T18:11:59.895Z,95898.00
2018-12-05T18:14:28.983Z,95897.00
2018-12-05T18:16:58.313Z,95883.00
2018-12-05T18:22:07.772Z,95887.00
2018-12-05T18:24:36.908Z,95880.00
2018-12-05T18:27:06.216Z,95893.00
2018-12-05T18:29:35.444Z,95886.00
2018-12-05T18:32:04.741Z,95876.00
2018-12-05T18:34:33.837Z,95888.00
2018-12-05T18:39:42.199Z,95877.00
2018-12-05T18:42:11.441Z,95879.00
2018-12-05T18:44:40.544Z,95875.00
2018-12-05T18:47:09.660Z,95876.00
2018-12-05T18:49:38.799Z,95872.00
2018-12-05T18:54:48.177Z,95871.00
2018-12-05T18:57:18.040Z,95867.00
2018-12-05T18:59:47.220Z,95860.00
2018-12-05T19:02:16.462Z,95866.00
2018-12-05T19:04:45.727Z,95854.00
2018-12-05T19:07:14.828Z,95853.00
2018-12-05T19:12:23.172Z,95858.00
2018-12-05T19:14:52.237Z,95836.00
2018-12-05T19:17:21.352Z,95844.00
2018-12-05T19:19:50.557Z,95835.00
2018-12-05T19:22:19.715Z,95831.00
2018-12-05T19:24:49.927Z,95829.00
2018-12-05T19:27:19.088Z,95825.00
2018-12-05T19:29:48.198Z,95825.00
2018-12-05T19:32:18.144Z,95826.00
2018-12-05T19:37:26.779Z,95823.00
2018-12-05T19:42:35.081Z,95808.00
2018-12-05T19:45:04.672Z,95813.00
2018-12-05T19:50:13.395Z,95798.00
2018-12-05T19:55:22.853Z,95820.00
2018-12-05T19:57:52.007Z,95811.00
2018-12-05T20:00:21.140Z,95804.00
2018-12-05T20:02:50.372Z,95801.00
2018-12-05T20:05:19.711Z,95799.00
2018-12-05T20:07:48.836Z,95778.00
2018-12-05T20:10:18.121Z,95793.00
2018-12-05T20:12:47.288Z,95781.00
2018-12-05T20:15:16.512Z,95777.00
2018-12-05T20:17:45.653Z,95767.00
2018-12-05T20:20:16.373Z,95775.00
2018-12-05T20:22:45.612Z,95787.00
2018-12-05T20:25:14.797Z,95780.00
2018-12-05T20:27:43.989Z,95771.00
2018-12-05T20:30:13.259Z,95775.00
2018-12-05T20:32:42.374Z,95764.00
2018-12-05T20:35:11.574Z,95754.00
2018-12-05T20:37:40.753Z,95748.00
2018-12-05T20:40:10.658Z,95749.00
2018-12-05T20:42:40.580Z,95752.00
2018-12-05T20:45:10.974Z,95754.00
2018-12-05T20:47:40.764Z,95746.00
2018-12-05T20:50:10.781Z,95726.00
2018-12-05T20:55:48.134Z,95732.00
2018-12-05T20:58:17.932Z,95734.00
2018-12-05T21:00:47.000Z,95741.00
2018-12-05T21:05:54.952Z,95732.00
2018-12-05T21:08:24.257Z,95737.00
2018-12-05T21:10:53.298Z,95738.00
2018-12-05T21:13:22.453Z,95730.00
2018-12-05T21:15:51.544Z,95726.00
2018-12-05T21:18:20.845Z,95726.00
2018-12-05T21:20:49.944Z,95716.00
2018-12-05T21:23:19.156Z,95708.00
2018-12-05T21:28:27.556Z,95706.00
2018-12-05T21:30:56.684Z,95715.00
2018-12-05T21:33:25.773Z,95710.00
2018-12-05T21:35:54.988Z,95702.00
2018-12-05T21:38:24.047Z,95691.00
2018-12-05T21:40:53.273Z,95704.00
2018-12-05T21:43:22.343Z,95705.00
2018-12-05T21:45:51.519Z,95707.00
2018-12-05T21:48:20.557Z,95695.00
2018-12-05T21:53:27.880Z,95700.00
2018-12-05T21:55:57.010Z,95699.00
2018-12-05T21:58:26.136Z,95695.00
2018-12-05T22:00:55.272Z,95696.00
2018-12-05T22:03:24.412Z,95683.00
2018-12-05T22:05:53.520Z,95676.00
2018-12-05T22:08:22.639Z,95671.00
2018-12-05T22:10:51.894Z,95664.00
2018-12-05T22:13:21.029Z,95670.00
2018-12-05T22:15:50.177Z,95665.00
2018-12-05T22:18:19.429Z,95670.00
2018-12-05T22:20:48.536Z,95660.00
2018-12-05T22:23:18.214Z,95671.00
2018-12-05T22:25:48.613Z,95663.00
2018-12-05T22:28:17.888Z,95662.00
2018-12-05T22:30:47.027Z,95650.00
2018-12-05T22:33:16.223Z,95667.00
2018-12-05T22:35:45.424Z,95671.00
2018-12-05T22:38:14.429Z,95656.00
2018-12-05T22:40:43.649Z,95623.00
2018-12-05T22:43:12.821Z,95621.00
2018-12-05T22:45:42.495Z,95623.00
2018-12-05T22:50:51.621Z,95630.00
2018-12-05T22:53:20.752Z,95633.00
2018-12-05T22:55:49.825Z,95618.00
2018-12-05T22:58:19.028Z,95614.00
2018-12-05T23:00:54.497Z,95609.00
2018-12-05T23:03:24.876Z,95603.00
2018-12-05T23:05:54.173Z,95600.00
2018-12-05T23:08:23.393Z,95596.00
2018-12-05T23:10:52.617Z,95592.00
2018-12-05T23:13:21.976Z,95608.00
2018-12-05T23:15:51.096Z,95610.00
2018-12-05T23:18:20.287Z,95609.00
2018-12-05T23:20:49.649Z,95595.00
2018-12-05T23:23:18.832Z,95601.00
2018-12-05T23:25:47.953Z,95599.00
2018-12-05T23:28:18.092Z,95598.00
2018-12-05T23:30:47.221Z,95605.00
2018-12-05T23:33:16.367Z,95621.00
2018-12-05T23:35:46.489Z,95618.00
2018-12-05T23:38:15.707Z,95595.00
2018-12-05T23:40:45.786Z,95599.00
2018-12-05T23:43:14.908Z,95602.00
2018-12-05T23:45:43.968Z,95603.00
2018-12-05T23:48:14.553Z,95601.00
2018-12-05T23:53:22.330Z,95605.00
2018-12-05T23:55:51.508Z,95605.00
2018-12-05T23:58:20.552Z,95580.00
